Kayikli, Turkey

4:18 PM +03 on January 21, 2017 (GMT +0300)
Kamishli | | Change Station

Elev 1493 ft 37.05 °N, 41.22 °E | Updated 18 minutes ago

Mostly Cloudy
Mostly Cloudy
54 °F
Feels Like 54 °F
N
7
Wind Variable Wind from SSE

Today
High -- | Low -- °F
--% Chance of Precip.
Yesterday
High -- | Low -- °F
Precip. -- in
Pressure 30.01 in
Visibility 5.0 miles
Clouds Few 2600 ft
Scattered Clouds 10000 ft
Dew Point 27 °F
Humidity 35%
Rainfall 0.00 in
Snow Depth Not available.
7:24 AM 5:24 PM
Waning Crescent, 35% visible
METAR OSKL 211300Z 15006KT 8000 FEW026 SCT100 12/M03 Q1016
Pressure 30.01 in
Visibility 5.0 miles
Clouds Few 2600 ft
Scattered Clouds 10000 ft
Dew Point 27 °F
Humidity 35%
Rainfall 0.00 in
Snow Depth Not available.
7:24 AM 5:24 PM
Waning Crescent, 35% visible
METAR OSKL 211300Z 15006KT 8000 FEW026 SCT100 12/M03 Q1016

Get Your Daily Forecast Email!

Thanks for signing up!

Be on the lookout for a verification email in your inbox.

You'll start receiving the daily forecast at 8 AM.

×

10-Day Weather Forecast

×

Almanac

Astronomy

Jan. 21, 2017 Rise Set
Actual Time
Civil Twilight
Nautical Twilight
Astronomical Twilight
Moon
Length of Visible Light
Length of Day
Tomorrow will be .
, % of the Moon is Illuminated

Today's Extremes

Country Highs Country Lows

Community

WunderPhotos

Upload Photos

1,962,540 photos uploaded!

WunderBlog® & News

Nearby

Air Quality

  Air Quality AQ Index Pollutant
Not available.

Snow Depth

Station Depth Elevation

Earthquake Activity

City Distance Mag. Time & Date
Minimum magnitude displayed is 2.5.

Coastal Water Temperatures

Place Temperature

Stations

Nearby Weather Stations

Station Location Temp. Windchill Dew Point Humidity Wind Precip. Elev Updated Type